createdAt,value
2017-04-08T00:00:46.113Z,0
2017-04-08T00:01:46.062Z,0
2017-04-08T00:02:46.352Z,0
2017-04-08T00:03:46.342Z,0
2017-04-08T00:04:46.334Z,0
2017-04-08T00:05:45.991Z,0
2017-04-08T00:06:45.980Z,0
2017-04-08T00:07:45.961Z,0
2017-04-08T00:08:46.261Z,0
2017-04-08T00:09:45.929Z,0
2017-04-08T00:10:46.568Z,0
2017-04-08T00:11:46.561Z,0
2017-04-08T00:12:45.591Z,0
2017-04-08T00:13:45.873Z,0
2017-04-08T00:14:45.822Z,0
2017-04-08T00:15:46.133Z,0
2017-04-08T00:16:45.810Z,0
2017-04-08T00:17:46.442Z,0
2017-04-08T00:18:46.071Z,0
2017-04-08T00:19:46.042Z,0
2017-04-08T00:20:46.024Z,0
2017-04-08T00:21:46.003Z,0
2017-04-08T00:22:45.998Z,0
2017-04-08T00:23:45.981Z,0
2017-04-08T00:24:45.981Z,0
2017-04-08T00:25:45.941Z,0
2017-04-08T00:26:45.953Z,0
2017-04-08T00:27:46.221Z,0
2017-04-08T00:28:45.926Z,0
2017-04-08T00:29:46.271Z,0
2017-04-08T00:30:45.954Z,0
2017-04-08T00:31:46.164Z,0
2017-04-08T00:32:45.808Z,0
2017-04-08T00:33:45.812Z,0
2017-04-08T00:34:45.832Z,0
2017-04-08T00:35:45.761Z,0
2017-04-08T00:36:46.042Z,0
2017-04-08T00:37:46.049Z,0
2017-04-08T00:38:45.714Z,0
2017-04-08T00:39:46.001Z,0
2017-04-08T00:40:46.012Z,0
2017-04-08T00:41:45.965Z,0
2017-04-08T00:42:45.963Z,0
2017-04-08T00:43:45.930Z,0
2017-04-08T00:44:45.901Z,0
2017-04-08T00:45:45.883Z,0
2017-04-08T00:46:45.873Z,0
2017-04-08T00:47:45.873Z,0
2017-04-08T00:48:45.846Z,0
2017-04-08T00:49:45.584Z,0
2017-04-08T00:50:45.481Z,0
2017-04-08T00:51:45.863Z,0
2017-04-08T00:52:45.752Z,0
2017-04-08T00:53:45.122Z,0
2017-04-08T00:54:45.401Z,0
2017-04-08T00:55:45.382Z,0
2017-04-08T00:56:45.363Z,0
2017-04-08T00:57:45.352Z,0
2017-04-08T00:58:45.332Z,0
2017-04-08T00:59:45.323Z,0
2017-04-08T01:00:45.622Z,0
2017-04-08T01:01:45.298Z,0
2017-04-08T01:02:45.273Z,0
2017-04-08T01:03:44.941Z,0
2017-04-08T01:04:45.553Z,0
2017-04-08T01:05:44.591Z,0
2017-04-08T01:06:45.187Z,0
2017-04-08T01:07:45.475Z,0
2017-04-08T01:08:44.851Z,0
2017-04-08T01:09:45.462Z,0
2017-04-08T01:10:45.419Z,0
2017-04-08T01:11:45.100Z,0
2017-04-08T01:12:45.461Z,0
2017-04-08T01:13:45.073Z,0
2017-04-08T01:14:45.031Z,0
2017-04-08T01:15:45.013Z,0
2017-04-08T01:16:45.301Z,0
2017-04-08T01:17:44.971Z,0
2017-04-08T01:18:44.955Z,0
2017-04-08T01:19:45.272Z,0
2017-04-08T01:20:45.232Z,0
2017-04-08T01:21:45.222Z,0
2017-04-08T01:22:44.890Z,0
2017-04-08T01:23:45.164Z,0
2017-04-08T01:24:44.872Z,0
2017-04-08T01:25:44.841Z,0
2017-04-08T01:26:44.502Z,0
2017-04-08T01:27:44.797Z,0
2017-04-08T01:28:45.210Z,0
2017-04-08T01:29:44.443Z,0
2017-04-08T01:30:45.055Z,0
2017-04-08T01:31:44.762Z,0
2017-04-08T01:32:44.710Z,0
2017-04-08T01:33:44.702Z,0
2017-04-08T01:34:44.382Z,0
2017-04-08T01:35:44.960Z,0
2017-04-08T01:36:44.622Z,0
2017-04-08T01:37:44.604Z,0
2017-04-08T01:38:44.933Z,0
2017-04-08T01:39:44.261Z,0
2017-04-08T01:40:44.602Z,0
2017-04-08T01:41:44.241Z,0
2017-04-08T01:42:44.892Z,0
2017-04-08T01:43:44.823Z,0
2017-04-08T01:44:44.803Z,0
2017-04-08T01:45:44.774Z,0
2017-04-08T01:46:44.440Z,0
2017-04-08T01:47:44.132Z,0
2017-04-08T01:48:44.423Z,0
2017-04-08T01:49:44.381Z,0
2017-04-08T01:50:44.054Z,0
2017-04-08T01:51:44.693Z,0
2017-04-08T01:52:44.334Z,0
2017-04-08T01:53:44.315Z,0
2017-04-08T01:54:44.301Z,0
2017-04-08T01:55:44.291Z,0
2017-04-08T01:56:44.566Z,0
2017-04-08T01:57:44.614Z,0
2017-04-08T01:58:43.913Z,0
2017-04-08T01:59:44.205Z,0
2017-04-08T02:00:44.201Z,0
2017-04-08T02:01:44.465Z,0
2017-04-08T02:02:44.163Z,0
2017-04-08T02:03:43.829Z,0
2017-04-08T02:04:44.105Z,0
2017-04-08T02:05:43.792Z,0
2017-04-08T02:06:43.754Z,0
2017-04-08T02:07:43.744Z,0
2017-04-08T02:08:44.043Z,0
2017-04-08T02:09:44.010Z,0
2017-04-08T02:10:44.302Z,0
2017-04-08T02:11:43.980Z,0
2017-04-08T02:12:43.982Z,0
2017-04-08T02:13:43.645Z,0
2017-04-08T02:14:43.304Z,0
2017-04-08T02:15:43.913Z,0
2017-04-08T02:16:44.195Z,0
2017-04-08T02:17:43.563Z,0
2017-04-08T02:18:43.542Z,0
2017-04-08T02:19:44.132Z,0
2017-04-08T02:20:43.511Z,0
2017-04-08T02:21:43.493Z,0
2017-04-08T02:22:43.767Z,0
2017-04-08T02:23:43.760Z,0
2017-04-08T02:24:43.743Z,0
2017-04-08T02:25:43.419Z,0
2017-04-08T02:26:44.012Z,0
2017-04-08T02:27:43.698Z,0
2017-04-08T02:28:43.365Z,0
2017-04-08T02:29:43.649Z,0
2017-04-08T02:30:43.613Z,0
2017-04-08T02:31:43.903Z,0
2017-04-08T02:32:43.890Z,0
2017-04-08T02:33:43.574Z,0
2017-04-08T02:34:43.543Z,0
2017-04-08T02:35:43.542Z,0
2017-04-08T02:36:43.818Z,0
2017-04-08T02:37:43.476Z,0
2017-04-08T02:38:43.525Z,0
2017-04-08T02:39:43.756Z,0
2017-04-08T02:40:43.460Z,0
2017-04-08T02:41:43.461Z,0
2017-04-08T02:42:43.701Z,0
2017-04-08T02:43:43.704Z,0
2017-04-08T02:44:43.359Z,0
2017-04-08T02:45:43.643Z,0
2017-04-08T02:46:43.616Z,0
2017-04-08T02:47:43.604Z,0
2017-04-08T02:48:43.284Z,0
2017-04-08T02:49:43.584Z,0
2017-04-08T02:50:43.552Z,0
2017-04-08T02:51:43.569Z,0
2017-04-08T02:52:43.553Z,0
2017-04-08T02:53:43.495Z,0
2017-04-08T02:54:43.483Z,0
2017-04-08T02:55:43.450Z,0
2017-04-08T02:56:43.435Z,0
2017-04-08T02:57:43.112Z,0
2017-04-08T02:58:42.795Z,0
2017-04-08T02:59:43.084Z,0
2017-04-08T03:00:42.745Z,0
2017-04-08T03:01:43.399Z,0
2017-04-08T03:02:42.753Z,0
2017-04-08T03:03:43.012Z,0
2017-04-08T03:04:42.734Z,0
2017-04-08T03:05:42.960Z,0
2017-04-08T03:06:43.245Z,0
2017-04-08T03:07:42.665Z,0
2017-04-08T03:08:43.285Z,0
2017-04-08T03:09:43.197Z,0
2017-04-08T03:10:42.871Z,0
2017-04-08T03:11:43.156Z,0
2017-04-08T03:12:43.143Z,0
2017-04-08T03:13:42.807Z,0
2017-04-08T03:14:42.823Z,0
2017-04-08T03:15:42.775Z,0
2017-04-08T03:16:43.053Z,0
2017-04-08T03:17:42.432Z,0
2017-04-08T03:18:43.048Z,0
2017-04-08T03:19:43.000Z,0
2017-04-08T03:20:42.673Z,0
2017-04-08T03:21:42.383Z,0
2017-04-08T03:22:42.985Z,0
2017-04-08T03:23:42.931Z,0
2017-04-08T03:24:42.606Z,0
2017-04-08T03:25:42.283Z,0
2017-04-08T03:26:42.265Z,0
2017-04-08T03:27:42.553Z,0
2017-04-08T03:28:42.851Z,0
2017-04-08T03:29:42.503Z,0
2017-04-08T03:30:42.482Z,0
2017-04-08T03:31:42.460Z,0
2017-04-08T03:32:42.489Z,0
2017-04-08T03:33:42.732Z,0
2017-04-08T03:34:42.405Z,0
2017-04-08T03:35:42.703Z,0
2017-04-08T03:36:42.383Z,0
2017-04-08T03:37:42.043Z,0
2017-04-08T03:38:42.344Z,0
2017-04-08T03:39:42.325Z,0
2017-04-08T03:40:42.310Z,0
2017-04-08T03:41:41.654Z,0
2017-04-08T03:42:42.560Z,0
2017-04-08T03:43:41.942Z,0
2017-04-08T03:44:42.523Z,0
2017-04-08T03:45:41.911Z,0
2017-04-08T03:46:42.500Z,0
2017-04-08T03:47:41.543Z,0
2017-04-08T03:48:41.875Z,0
2017-04-08T03:49:42.489Z,0
2017-04-08T03:50:42.414Z,0
2017-04-08T03:51:42.390Z,0
2017-04-08T03:52:42.382Z,0
2017-04-08T03:53:42.371Z,0
2017-04-08T03:54:42.082Z,0
2017-04-08T03:55:42.013Z,0
2017-04-08T03:56:42.015Z,0
2017-04-08T03:57:42.284Z,0
2017-04-08T03:58:42.279Z,0
2017-04-08T03:59:42.266Z,0
2017-04-08T04:00:42.242Z,0
2017-04-08T04:01:41.286Z,0
2017-04-08T04:02:42.195Z,0
2017-04-08T04:03:42.181Z,0
2017-04-08T04:04:42.154Z,0
2017-04-08T04:05:41.625Z,0
2017-04-08T04:06:42.123Z,0
2017-04-08T04:07:41.783Z,0
2017-04-08T04:08:42.081Z,0
2017-04-08T04:09:41.754Z,0
2017-04-08T04:10:41.412Z,0
2017-04-08T04:11:42.041Z,0
2017-04-08T04:12:41.682Z,0
2017-04-08T04:13:41.678Z,0
2017-04-08T04:14:41.344Z,0
2017-04-08T04:15:41.693Z,0
2017-04-08T04:16:41.613Z,0
2017-04-08T04:17:41.284Z,0
2017-04-08T04:18:41.575Z,0
2017-04-08T04:19:41.252Z,0
2017-04-08T04:20:41.243Z,0
2017-04-08T04:21:41.514Z,0
2017-04-08T04:22:41.506Z,0
2017-04-08T04:23:40.923Z,0
2017-04-08T04:24:41.155Z,0
2017-04-08T04:25:41.451Z,4
2017-04-08T04:26:41.732Z,4
2017-04-08T04:27:41.121Z,4
2017-04-08T04:28:41.406Z,0
2017-04-08T04:29:41.381Z,4
2017-04-08T04:30:41.353Z,4
2017-04-08T04:31:41.012Z,4
2017-04-08T04:32:41.003Z,4
2017-04-08T04:33:40.994Z,4
2017-04-08T04:34:41.285Z,8
2017-04-08T04:35:41.229Z,8
2017-04-08T04:36:41.244Z,8
2017-04-08T04:37:41.204Z,16
2017-04-08T04:38:40.944Z,16
2017-04-08T04:39:40.874Z,16
2017-04-08T04:40:41.471Z,20
2017-04-08T04:41:41.133Z,20
2017-04-08T04:42:41.133Z,24
2017-04-08T04:43:40.626Z,24
2017-04-08T04:44:41.076Z,28
2017-04-08T04:45:41.053Z,32
2017-04-08T04:46:41.064Z,36
2017-04-08T04:47:41.382Z,40
2017-04-08T04:48:40.731Z,44
2017-04-08T04:49:41.025Z,44
2017-04-08T04:50:41.274Z,52
2017-04-08T04:51:41.267Z,52
2017-04-08T04:52:40.964Z,60
2017-04-08T04:53:40.603Z,64
2017-04-08T04:54:40.914Z,68
2017-04-08T04:55:40.884Z,72
2017-04-08T04:56:41.172Z,76
2017-04-08T04:57:40.831Z,80
2017-04-08T04:58:41.135Z,84
2017-04-08T04:59:40.483Z,88
2017-04-08T05:00:41.111Z,92
2017-04-08T05:01:40.751Z,96
2017-04-08T05:02:41.103Z,96
2017-04-08T05:03:41.045Z,104
2017-04-08T05:04:41.013Z,108
2017-04-08T05:05:41.025Z,116
2017-04-08T05:06:41.013Z,124
2017-04-08T05:07:40.347Z,128
2017-04-08T05:08:40.922Z,132
2017-04-08T05:09:40.586Z,144
2017-04-08T05:10:40.273Z,152
2017-04-08T05:11:40.864Z,156
2017-04-08T05:12:40.532Z,164
2017-04-08T05:13:40.210Z,168
2017-04-08T05:14:40.523Z,176
2017-04-08T05:15:39.882Z,176
2017-04-08T05:16:40.760Z,184
2017-04-08T05:17:40.442Z,188
2017-04-08T05:18:40.112Z,200
2017-04-08T05:19:40.730Z,220
2017-04-08T05:20:40.383Z,232
2017-04-08T05:21:40.681Z,236
2017-04-08T05:22:40.664Z,236
2017-04-08T05:23:40.664Z,244
2017-04-08T05:24:40.644Z,252
2017-04-08T05:25:39.674Z,264
2017-04-08T05:26:40.271Z,280
2017-04-08T05:27:40.573Z,288
2017-04-08T05:28:40.243Z,292
2017-04-08T05:29:40.512Z,296
2017-04-08T05:30:40.202Z,300
2017-04-08T05:31:40.183Z,312
2017-04-08T05:32:40.472Z,328
2017-04-08T05:33:40.443Z,352
2017-04-08T05:34:40.226Z,360
2017-04-08T05:35:40.404Z,372
2017-04-08T05:36:39.790Z,388
2017-04-08T05:37:40.082Z,384
2017-04-08T05:38:40.051Z,396
2017-04-08T05:39:40.031Z,400
2017-04-08T05:40:39.713Z,420
2017-04-08T05:41:39.373Z,444
2017-04-08T05:42:40.291Z,444
2017-04-08T05:43:40.276Z,408
2017-04-08T05:44:40.252Z,388
2017-04-08T05:45:40.224Z,388
2017-04-08T05:46:40.191Z,408
2017-04-08T05:47:39.633Z,432
2017-04-08T05:48:39.543Z,464
2017-04-08T05:49:39.527Z,496
2017-04-08T05:50:39.821Z,508
2017-04-08T05:51:40.111Z,508
2017-04-08T05:52:39.484Z,520
2017-04-08T05:53:40.074Z,560
2017-04-08T05:54:40.042Z,572
2017-04-08T05:55:39.461Z,556
2017-04-08T05:56:40.003Z,556
2017-04-08T05:57:39.999Z,560
2017-04-08T05:58:39.991Z,584
2017-04-08T05:59:39.972Z,616
2017-04-08T06:00:39.622Z,636
2017-04-08T06:01:39.624Z,660
2017-04-08T06:02:39.587Z,652
2017-04-08T06:03:39.672Z,652
2017-04-08T06:04:39.274Z,656
2017-04-08T06:05:39.559Z,668
2017-04-08T06:06:39.819Z,676
2017-04-08T06:07:39.513Z,692
2017-04-08T06:08:39.221Z,736
2017-04-08T06:09:39.478Z,756
2017-04-08T06:10:39.450Z,796
2017-04-08T06:11:39.772Z,864
2017-04-08T06:12:39.407Z,892
2017-04-08T06:13:39.442Z,836
2017-04-08T06:14:39.682Z,816
2017-04-08T06:15:39.364Z,820
2017-04-08T06:16:39.640Z,904
2017-04-08T06:17:39.333Z,1008
2017-04-08T06:18:39.440Z,1048
2017-04-08T06:19:39.000Z,1092
2017-04-08T06:20:38.957Z,1124
2017-04-08T06:21:39.590Z,1148
2017-04-08T06:22:39.248Z,1132
2017-04-08T06:23:39.490Z,1108
2017-04-08T06:24:39.170Z,1044
2017-04-08T06:25:39.480Z,1028
2017-04-08T06:26:38.812Z,1052
2017-04-08T06:27:38.831Z,1092
2017-04-08T06:28:38.888Z,1164
2017-04-08T06:29:39.080Z,1224
2017-04-08T06:30:39.042Z,1296
2017-04-08T06:31:39.040Z,1328
2017-04-08T06:32:39.015Z,1408
2017-04-08T06:33:39.010Z,1464
2017-04-08T06:34:39.053Z,1496
2017-04-08T06:35:39.252Z,1420
2017-04-08T06:36:38.706Z,1336
2017-04-08T06:37:38.911Z,1272
2017-04-08T06:38:38.912Z,1300
2017-04-08T06:39:38.887Z,1352
2017-04-08T06:40:38.981Z,1460
2017-04-08T06:41:38.852Z,1516
2017-04-08T06:42:39.124Z,1496
2017-04-08T06:43:38.813Z,1460
2017-04-08T06:44:38.883Z,1428
2017-04-08T06:45:38.766Z,1488
2017-04-08T06:46:38.752Z,1496
2017-04-08T06:47:38.445Z,1508
2017-04-08T06:48:38.742Z,1520
2017-04-08T06:49:38.691Z,1596
2017-04-08T06:50:38.692Z,1624
2017-04-08T06:51:38.991Z,1668
2017-04-08T06:52:38.340Z,1768
2017-04-08T06:53:38.929Z,1820
2017-04-08T06:54:38.922Z,1848
2017-04-08T06:55:38.890Z,1908
2017-04-08T06:56:38.881Z,1804
2017-04-08T06:57:38.867Z,1720
2017-04-08T06:58:38.547Z,1772
2017-04-08T06:59:38.831Z,1684
2017-04-08T07:00:38.822Z,1788
2017-04-08T07:01:38.166Z,1908
2017-04-08T07:02:38.764Z,2060
2017-04-08T07:03:38.445Z,2064
2017-04-08T07:04:38.742Z,1928
2017-04-08T07:05:38.708Z,1900
2017-04-08T07:06:38.702Z,1844
2017-04-08T07:07:38.670Z,1852
2017-04-08T07:08:38.647Z,1908
2017-04-08T07:09:38.332Z,1968
2017-04-08T07:10:38.617Z,2024
2017-04-08T07:11:38.604Z,2072
2017-04-08T07:12:38.575Z,2064
2017-04-08T07:13:38.595Z,2076
2017-04-08T07:14:38.553Z,2072
2017-04-08T07:15:37.589Z,2096
2017-04-08T07:16:38.499Z,2124
2017-04-08T07:17:38.185Z,2244
2017-04-08T07:18:38.163Z,2376
2017-04-08T07:19:38.456Z,2432
2017-04-08T07:20:38.128Z,2512
2017-04-08T07:21:38.410Z,2556
2017-04-08T07:22:38.384Z,2552
2017-04-08T07:23:37.752Z,2516
2017-04-08T07:24:38.057Z,2576
2017-04-08T07:25:38.343Z,2620
2017-04-08T07:26:38.012Z,2720
2017-04-08T07:27:37.776Z,2700
2017-04-08T07:28:37.660Z,2724
2017-04-08T07:29:38.244Z,2828
2017-04-08T07:30:38.232Z,2852
2017-04-08T07:31:37.933Z,2876
2017-04-08T07:32:38.203Z,3036
2017-04-08T07:33:38.029Z,2992
2017-04-08T07:34:38.183Z,3016
2017-04-08T07:35:37.556Z,2972
2017-04-08T07:36:38.124Z,3104
2017-04-08T07:37:37.883Z,3184
2017-04-08T07:38:37.790Z,3004
2017-04-08T07:39:38.078Z,2896
2017-04-08T07:40:37.785Z,2876
2017-04-08T07:41:37.543Z,3080
2017-04-08T07:42:37.728Z,3624
2017-04-08T07:43:37.753Z,3700
2017-04-08T07:44:37.682Z,3688
2017-04-08T07:45:37.358Z,3316
2017-04-08T07:46:37.684Z,3132
2017-04-08T07:47:37.633Z,2972
2017-04-08T07:48:37.622Z,2900
2017-04-08T07:49:37.591Z,2916
2017-04-08T07:50:37.905Z,3040
2017-04-08T07:51:37.551Z,3268
2017-04-08T07:52:37.537Z,3276
2017-04-08T07:53:37.233Z,3324
2017-04-08T07:54:37.823Z,3500
2017-04-08T07:55:36.994Z,3584
2017-04-08T07:56:37.462Z,3900
2017-04-08T07:57:37.151Z,4104
2017-04-08T07:58:37.452Z,4364
2017-04-08T07:59:37.421Z,4676
2017-04-08T08:00:37.153Z,5088
2017-04-08T08:01:37.673Z,5100
2017-04-08T08:02:37.042Z,5424
2017-04-08T08:03:37.634Z,6188
2017-04-08T08:04:37.635Z,6028
2017-04-08T08:05:37.112Z,5844
2017-04-08T08:06:37.602Z,5512
2017-04-08T08:07:37.286Z,5344
2017-04-08T08:08:37.563Z,5016
2017-04-08T08:09:37.274Z,4944
2017-04-08T08:10:37.539Z,4744
2017-04-08T08:11:37.203Z,4660
2017-04-08T08:12:37.165Z,4936
2017-04-08T08:13:36.864Z,5088
2017-04-08T08:14:36.862Z,5160
2017-04-08T08:15:37.429Z,5228
2017-04-08T08:16:37.413Z,5172
2017-04-08T08:17:37.085Z,5424
2017-04-08T08:18:37.083Z,5132
2017-04-08T08:19:37.355Z,5096
2017-04-08T08:20:37.101Z,5168
2017-04-08T08:21:37.028Z,5556
2017-04-08T08:22:37.303Z,5808
2017-04-08T08:23:37.316Z,6164
2017-04-08T08:24:37.260Z,5900
2017-04-08T08:25:36.637Z,6084
2017-04-08T08:26:37.252Z,7020
2017-04-08T08:27:36.906Z,6812
2017-04-08T08:28:37.197Z,5988
2017-04-08T08:29:37.197Z,5344
2017-04-08T08:30:36.877Z,5064
2017-04-08T08:31:37.156Z,5152
2017-04-08T08:32:37.140Z,5300
2017-04-08T08:33:36.911Z,5528
2017-04-08T08:34:36.492Z,5772
2017-04-08T08:35:36.473Z,6324
2017-04-08T08:36:37.087Z,6268
2017-04-08T08:37:37.064Z,5944
2017-04-08T08:38:36.733Z,5988
2017-04-08T08:39:37.031Z,6304
2017-04-08T08:40:36.693Z,6636
2017-04-08T08:41:36.727Z,6812
2017-04-08T08:42:36.981Z,6708
2017-04-08T08:43:36.753Z,6404
2017-04-08T08:44:36.625Z,6324
2017-04-08T08:45:36.612Z,6372
2017-04-08T08:46:36.595Z,5820
2017-04-08T08:47:36.593Z,5420
2017-04-08T08:48:36.593Z,5248
2017-04-08T08:49:36.262Z,5324
2017-04-08T08:50:36.523Z,5476
2017-04-08T08:51:36.818Z,5456
2017-04-08T08:52:36.784Z,5688
2017-04-08T08:53:36.782Z,6216
2017-04-08T08:54:36.458Z,6076
2017-04-08T08:55:36.438Z,6188
2017-04-08T08:56:36.744Z,6112
2017-04-08T08:57:36.406Z,5652
2017-04-08T08:58:36.694Z,5868
2017-04-08T08:59:36.663Z,6388
2017-04-08T09:00:36.058Z,6480
2017-04-08T09:01:36.662Z,6448
2017-04-08T09:02:36.333Z,6340
2017-04-08T09:03:36.622Z,6504
2017-04-08T09:04:36.599Z,7140
2017-04-08T09:05:36.584Z,7396
2017-04-08T09:06:36.282Z,7628
2017-04-08T09:07:36.250Z,7576
2017-04-08T09:08:36.229Z,7468
2017-04-08T09:09:36.596Z,7640
2017-04-08T09:10:36.205Z,7180
2017-04-08T09:11:36.176Z,7120
2017-04-08T09:12:36.465Z,7412
2017-04-08T09:13:36.469Z,7540
2017-04-08T09:14:36.454Z,8432
2017-04-08T09:15:35.813Z,8408
2017-04-08T09:16:36.452Z,8452
2017-04-08T09:17:36.408Z,8444
2017-04-08T09:18:36.055Z,8552
2017-04-08T09:19:36.465Z,8620
2017-04-08T09:20:36.340Z,8840
2017-04-08T09:21:35.723Z,8684
2017-04-08T09:22:36.316Z,8676
2017-04-08T09:23:36.019Z,8448
2017-04-08T09:24:36.271Z,7916
2017-04-08T09:25:36.281Z,7668
2017-04-08T09:26:36.347Z,7396
2017-04-08T09:27:35.922Z,7492
2017-04-08T09:28:36.193Z,7732
2017-04-08T09:29:36.235Z,7564
2017-04-08T09:30:36.209Z,7196
2017-04-08T09:31:36.168Z,6776
2017-04-08T09:32:36.215Z,6812
2017-04-08T09:33:36.146Z,7056
2017-04-08T09:34:35.805Z,6764
2017-04-08T09:35:36.163Z,6644
2017-04-08T09:36:35.783Z,6488
2017-04-08T09:37:36.128Z,6332
2017-04-08T09:38:35.457Z,6196
2017-04-08T09:39:35.792Z,6116
2017-04-08T09:40:35.382Z,6012
2017-04-08T09:41:35.699Z,5788
2017-04-08T09:42:35.665Z,5692
2017-04-08T09:43:35.994Z,5852
2017-04-08T09:44:36.025Z,5856
2017-04-08T09:45:36.040Z,5788
2017-04-08T09:46:35.653Z,5912
2017-04-08T09:47:35.908Z,6160
2017-04-08T09:48:35.878Z,6384
2017-04-08T09:49:35.863Z,6712
2017-04-08T09:50:35.907Z,6712
2017-04-08T09:51:35.886Z,6580
2017-04-08T09:52:35.924Z,6516
2017-04-08T09:53:35.482Z,6608
2017-04-08T09:54:35.877Z,6520
2017-04-08T09:55:35.511Z,6524
2017-04-08T09:56:35.814Z,6552
2017-04-08T09:57:35.428Z,6640
2017-04-08T09:58:35.754Z,6652
2017-04-08T09:59:35.374Z,6728
2017-04-08T10:00:35.688Z,6928
2017-04-08T10:01:35.067Z,6844
2017-04-08T10:02:35.039Z,6828
2017-04-08T10:03:35.333Z,6600
2017-04-08T10:04:35.322Z,6340
2017-04-08T10:05:35.343Z,6224
2017-04-08T10:06:35.271Z,6168
2017-04-08T10:07:35.600Z,6368
2017-04-08T10:08:35.005Z,6576
2017-04-08T10:09:35.582Z,6692
2017-04-08T10:10:35.575Z,6740
2017-04-08T10:11:35.225Z,7024
2017-04-08T10:12:35.573Z,7240
2017-04-08T10:13:35.173Z,7960
2017-04-08T10:14:35.195Z,7684
2017-04-08T10:15:35.436Z,7192
2017-04-08T10:16:34.823Z,6640
2017-04-08T10:17:35.173Z,6128
2017-04-08T10:18:35.076Z,5976
2017-04-08T10:19:35.393Z,6660
2017-04-08T10:20:35.055Z,8164
2017-04-08T10:21:35.044Z,9804
2017-04-08T10:22:35.366Z,7948
2017-04-08T10:23:35.377Z,7660
2017-04-08T10:24:35.322Z,7848
2017-04-08T10:25:34.995Z,8272
2017-04-08T10:26:34.973Z,9332
2017-04-08T10:27:35.243Z,9144
2017-04-08T10:28:35.280Z,9188
2017-04-08T10:29:34.919Z,9144
2017-04-08T10:30:34.605Z,9136
2017-04-08T10:31:34.889Z,9320
2017-04-08T10:32:35.187Z,9140
2017-04-08T10:33:34.862Z,8924
2017-04-08T10:34:34.853Z,9356
2017-04-08T10:35:35.143Z,9116
2017-04-08T10:36:35.123Z,9012
2017-04-08T10:37:35.103Z,8768
2017-04-08T10:38:35.083Z,8320
2017-04-08T10:39:35.056Z,8368
2017-04-08T10:40:35.045Z,8964
2017-04-08T10:41:34.732Z,9992
2017-04-08T10:42:35.029Z,10412
2017-04-08T10:43:34.706Z,9988
2017-04-08T10:44:34.992Z,9388
2017-04-08T10:45:34.986Z,8732
2017-04-08T10:46:34.975Z,7976
2017-04-08T10:47:34.943Z,7424
2017-04-08T10:48:34.948Z,7320
2017-04-08T10:49:34.916Z,10252
2017-04-08T10:50:34.609Z,10000
2017-04-08T10:51:34.875Z,10804
2017-04-08T10:52:34.548Z,11224
2017-04-08T10:53:34.866Z,10924
2017-04-08T10:54:34.576Z,10760
2017-04-08T10:55:34.534Z,10360
2017-04-08T10:56:34.824Z,9820
2017-04-08T10:57:34.807Z,8916
2017-04-08T10:58:34.779Z,8092
2017-04-08T10:59:34.472Z,7264
2017-04-08T11:00:34.135Z,6884
2017-04-08T11:01:34.134Z,7140
2017-04-08T11:02:34.424Z,8480
2017-04-08T11:03:34.723Z,9468
2017-04-08T11:04:34.695Z,9660
2017-04-08T11:05:34.365Z,9276
2017-04-08T11:06:34.075Z,9112
2017-04-08T11:07:34.347Z,8900
2017-04-08T11:08:34.324Z,8408
2017-04-08T11:09:34.634Z,7884
2017-04-08T11:10:34.331Z,8004
2017-04-08T11:11:34.596Z,8560
2017-04-08T11:12:34.267Z,8932
2017-04-08T11:13:33.972Z,9400
2017-04-08T11:14:34.565Z,9736
2017-04-08T11:15:34.226Z,9892
2017-04-08T11:16:34.222Z,10196
2017-04-08T11:17:34.503Z,10440
2017-04-08T11:18:34.205Z,10496
2017-04-08T11:19:34.196Z,9372
2017-04-08T11:20:33.866Z,8340
2017-04-08T11:21:34.143Z,7564
2017-04-08T11:22:34.128Z,7516
2017-04-08T11:23:34.123Z,7516
2017-04-08T11:24:34.111Z,7312
2017-04-08T11:25:34.405Z,7000
2017-04-08T11:26:34.439Z,6780
2017-04-08T11:27:34.040Z,6624
2017-04-08T11:28:34.066Z,6744
2017-04-08T11:29:33.729Z,7100
2017-04-08T11:30:34.015Z,7396
2017-04-08T11:31:34.041Z,7960
2017-04-08T11:32:34.307Z,9004
2017-04-08T11:33:34.074Z,10496
2017-04-08T11:34:33.955Z,9208
2017-04-08T11:35:34.029Z,9176
2017-04-08T11:36:33.989Z,9136
2017-04-08T11:37:34.293Z,8528
2017-04-08T11:38:34.322Z,8036
2017-04-08T11:39:33.681Z,7784
2017-04-08T11:40:33.874Z,7476
2017-04-08T11:41:34.150Z,7328
2017-04-08T11:42:34.163Z,7180
2017-04-08T11:43:34.122Z,7004
2017-04-08T11:44:33.564Z,6860
2017-04-08T11:45:33.492Z,6808
2017-04-08T11:46:34.080Z,6912
2017-04-08T11:47:33.453Z,7180
2017-04-08T11:48:34.101Z,7824
2017-04-08T11:49:33.776Z,9956
2017-04-08T11:50:34.054Z,8348
2017-04-08T11:51:34.000Z,8704
2017-04-08T11:52:34.033Z,8920
2017-04-08T11:53:34.077Z,8896
2017-04-08T11:54:34.012Z,9076
2017-04-08T11:55:33.999Z,9240
2017-04-08T11:56:33.627Z,9240
2017-04-08T11:57:33.994Z,9284
2017-04-08T11:58:33.904Z,9244
2017-04-08T11:59:33.938Z,8544
2017-04-08T12:00:33.914Z,8448
2017-04-08T12:01:33.878Z,8172
2017-04-08T12:02:33.531Z,7860
2017-04-08T12:03:33.872Z,7600
2017-04-08T12:04:33.811Z,7356
2017-04-08T12:05:33.799Z,7396
2017-04-08T12:06:33.892Z,7684
2017-04-08T12:07:33.446Z,7808
2017-04-08T12:08:33.816Z,7752
2017-04-08T12:09:33.822Z,7844
2017-04-08T12:10:33.405Z,7988
2017-04-08T12:11:33.392Z,7860
2017-04-08T12:12:33.068Z,8000
2017-04-08T12:13:33.379Z,7904
2017-04-08T12:14:33.340Z,7900
2017-04-08T12:15:33.646Z,7944
2017-04-08T12:16:33.310Z,7932
2017-04-08T12:17:33.326Z,8124
2017-04-08T12:18:32.981Z,8364
2017-04-08T12:19:33.650Z,8704
2017-04-08T12:20:32.953Z,11108
2017-04-08T12:21:33.602Z,9256
2017-04-08T12:22:33.225Z,11388
2017-04-08T12:23:33.512Z,10448
2017-04-08T12:24:33.506Z,9464
2017-04-08T12:25:33.253Z,9192
2017-04-08T12:26:32.862Z,9152
2017-04-08T12:27:33.460Z,9016
2017-04-08T12:28:33.130Z,8144
2017-04-08T12:29:33.132Z,7676
2017-04-08T12:30:33.442Z,7796
2017-04-08T12:31:33.411Z,7756
2017-04-08T12:32:33.083Z,7464
2017-04-08T12:33:33.384Z,7452
2017-04-08T12:34:33.383Z,7396
2017-04-08T12:35:33.052Z,7456
2017-04-08T12:36:32.819Z,7152
2017-04-08T12:37:33.312Z,6884
2017-04-08T12:38:33.002Z,6668
2017-04-08T12:39:33.294Z,6472
2017-04-08T12:40:32.662Z,6428
2017-04-08T12:41:33.254Z,6480
2017-04-08T12:42:33.245Z,6520
2017-04-08T12:43:33.222Z,6524
2017-04-08T12:44:32.902Z,6508
2017-04-08T12:45:32.894Z,6552
2017-04-08T12:46:32.896Z,6536
2017-04-08T12:47:32.854Z,6736
2017-04-08T12:48:33.161Z,6768
2017-04-08T12:49:32.935Z,6752
2017-04-08T12:50:32.528Z,6872
2017-04-08T12:51:32.807Z,6908
2017-04-08T12:52:32.784Z,6952
2017-04-08T12:53:32.791Z,7028
2017-04-08T12:54:32.455Z,7048
2017-04-08T12:55:33.041Z,6956
2017-04-08T12:56:32.732Z,6852
2017-04-08T12:57:32.395Z,6676
2017-04-08T12:58:32.702Z,6484
2017-04-08T12:59:32.694Z,6316
2017-04-08T13:00:32.692Z,6184
2017-04-08T13:01:32.652Z,6088
2017-04-08T13:02:32.333Z,6032
2017-04-08T13:03:32.618Z,5992
2017-04-08T13:04:32.913Z,5944
2017-04-08T13:05:32.915Z,5904
2017-04-08T13:06:32.563Z,5920
2017-04-08T13:07:32.592Z,5916
2017-04-08T13:08:32.555Z,5988
2017-04-08T13:09:32.533Z,6040
2017-04-08T13:10:32.533Z,6120
2017-04-08T13:11:31.911Z,6220
2017-04-08T13:12:32.796Z,6312
2017-04-08T13:13:32.802Z,6292
2017-04-08T13:14:32.474Z,6256
2017-04-08T13:15:32.512Z,6256
2017-04-08T13:16:32.755Z,6256
2017-04-08T13:17:32.502Z,6216
2017-04-08T13:18:32.116Z,6136
2017-04-08T13:19:32.713Z,6020
2017-04-08T13:20:32.684Z,5940
2017-04-08T13:21:32.379Z,5884
2017-04-08T13:22:32.354Z,5828
2017-04-08T13:23:32.663Z,5776
2017-04-08T13:24:32.661Z,5788
2017-04-08T13:25:32.612Z,5788
2017-04-08T13:26:31.993Z,5836
2017-04-08T13:27:32.287Z,5888
2017-04-08T13:28:32.293Z,5900
2017-04-08T13:29:32.255Z,5892
2017-04-08T13:30:32.214Z,5940
2017-04-08T13:31:32.571Z,6016
2017-04-08T13:32:32.203Z,6068
2017-04-08T13:33:32.252Z,6172
2017-04-08T13:34:32.168Z,6288
2017-04-08T13:35:32.477Z,6360
2017-04-08T13:36:32.456Z,6396
2017-04-08T13:37:32.437Z,6444
2017-04-08T13:38:32.124Z,6488
2017-04-08T13:39:31.486Z,6512
2017-04-08T13:40:32.415Z,6512
2017-04-08T13:41:32.163Z,6516
2017-04-08T13:42:32.422Z,6540
2017-04-08T13:43:32.455Z,6596
2017-04-08T13:44:32.341Z,6696
2017-04-08T13:45:32.046Z,6920
2017-04-08T13:46:32.319Z,6784
2017-04-08T13:47:32.014Z,6568
2017-04-08T13:48:31.974Z,6420
2017-04-08T13:49:31.365Z,6288